Boerne, TX (78015)

1:43 PM CDT on September 16, 2014 (GMT -0500)
boerne north | Change Station
CLOSE
Current Station
Personal Weather Station
Location: Boerne, TX
Elevation: 1480 ft
Nearby Weather Stations

Elev 1480 ft 29.81 °N, 98.75 °W | Updated 13 seconds ago

Mostly Cloudy
Mostly Cloudy
84.4 °F
Feels Like 88 °F
N
10.7
Wind Variable Wind from East
Gusts 12.3 mph

Today
High -- | Low -- °F
--% Chance of Precip.
Yesterday
High -- | Low -- °F
Precip. -- in
7:20 AM 7:38 PM
Last Quarter, 43% visible
Pressure 30.08 in
Visibility 10.0 miles
Clouds Scattered Clouds 3800 ft
Scattered Clouds 6000 ft
Overcast 7000 ft
Heat Index 88 °F
Dew Point 69 °F
Humidity 61%
Rainfall 0.00 in
Snow Depth Not available.
UV 3 out of 12
Pollen 9.80 out of 12
Ozone Good
PM2.5 Good
Flu Activity Not available.
METAR K5C1 161835Z AUTO 09007KT 10SM SCT038 SCT060 OVC070 30/18 A3008 RMK AO1

More Conditions Fewer Conditions

Pressure 30.08 in
Visibility 10.0 miles
Clouds Scattered Clouds 3800 ft
Scattered Clouds 6000 ft
Overcast 7000 ft
Heat Index 88 °F
Dew Point 69 °F
Humidity 61%
Rainfall 0.00 in
Snow Depth Not available.
UV 3 out of 12
Pollen 9.80 out of 12
Ozone Good
PM2.5 Good
Flu Activity Not available.
METAR K5C1 161835Z AUTO 09007KT 10SM SCT038 SCT060 OVC070 30/18 A3008 RMK AO1

More Conditions Fewer Conditions

Nowcast | as of 12:51 PM CDT on September 16, 2014

Through 3 PM...scattered showers and thunderstorms will move up from te south. These storms will produce infrequent lightning and light to moderate rain. Rainfall totals will be up to a quarter of an inch.

×

10-Day Weather Forecast

Almanac

Astronomy

Sep. 16, 2014 Rise Set
Actual Time 7:20 AM CDT 7:38 PM CDT
Civil Twilight 6:56 AM CDT 8:02 PM CDT
Nautical Twilight 6:28 AM CDT 8:30 PM CDT
Astronomical Twilight 5:59 AM CDT 8:58 PM CDT
Moon 12:49 AM CDT 2:45 PM CDT
Length of Visible Light 13h 06m
Length of Day
12h 18m
Tomorrow will be 1m 46s shorter.
Last Quarter, 43% of the Moon is Illuminated
Today
Last Quarter
Sep 24
New
Oct 1
First Quarter
Oct 8
Full
Oct 15
Last Quarter

Today's Extremes

State Highs State Lows

Community

WunderPhotos

Upload Photos

1,753,856 photos uploaded!

Nearby

Air Quality

  Air Quality AQ Index Pollutant
Yesterday Moderate
PM2.5
Yesterday Good
OZONE
Current Good
OZONE
Current Good
PM2.5
Tuesday Good
OZONE
Tuesday Good
PM10
Wednesday Good
OZONE
Wednesday Good
PM10
Thursday Good
OZONE
Thursday Good
PM10
Friday Good
PM10
Friday Good
OZONE

Snow Depth

Station Depth Elevation
No new snow has been reported.

Earthquake Activity

City Distance Mag. Time & Date
No recent earthquake activity has been reported nearby.
Minimum magnitude displayed is 2.5.

Coastal Water Temperatures

Place Temperature
No Stations Reporting

Nearby Weather Stations